createdAt,value
2017-03-23T00:00:03.339Z,1004.58
2017-03-23T00:15:02.843Z,1004.58
2017-03-23T00:30:02.978Z,1004.57
2017-03-23T00:45:02.872Z,1004.67
2017-03-23T01:00:03.753Z,1004.56
2017-03-23T01:15:03.500Z,1004.51
2017-03-23T01:30:03.415Z,1004.35
2017-03-23T01:45:03.734Z,1004.19
2017-03-23T02:00:03.495Z,1004.24
2017-03-23T02:15:03.059Z,1004.32
2017-03-23T02:30:02.915Z,1004.34
2017-03-23T02:45:02.607Z,1004.39
2017-03-23T03:00:03.578Z,1004.36
2017-03-23T03:15:02.772Z,1004.39
2017-03-23T03:30:03.043Z,1004.47
2017-03-23T03:45:02.729Z,1004.37
2017-03-23T04:00:03.459Z,1004.45
2017-03-23T04:15:03.290Z,1004.47
2017-03-23T04:30:03.183Z,1004.27
2017-03-23T04:45:02.904Z,1004.31
2017-03-23T05:00:02.644Z,1004.37
2017-03-23T05:15:03.565Z,1004.57
2017-03-23T05:30:03.722Z,1004.6
2017-03-23T05:45:03.451Z,1004.76
2017-03-23T06:00:08.527Z,1004.77
2017-03-23T06:15:04.548Z,1004.91
2017-03-23T06:30:03.374Z,1005.03
2017-03-23T06:45:03.112Z,1004.9
2017-03-23T07:00:07.836Z,1005.12
2017-03-23T07:15:03.328Z,1005.29
2017-03-23T07:30:03.595Z,1005.43
2017-03-23T07:45:03.288Z,1005.59
2017-03-23T08:00:08.228Z,1005.62
2017-03-23T08:15:03.068Z,1005.62
2017-03-23T08:30:08.206Z,1005.91
2017-03-23T08:45:02.963Z,1006.22
2017-03-23T09:00:02.964Z,1006.24
2017-03-23T09:15:02.686Z,1006.04
2017-03-23T09:30:02.931Z,1005.93
2017-03-23T09:45:02.649Z,1005.88
2017-03-23T10:00:03.327Z,1006.11
2017-03-23T10:15:03.368Z,1006.2
2017-03-23T10:30:03.421Z,1006.14
2017-03-23T10:45:03.331Z,1006.19
2017-03-23T11:00:02.825Z,1006.14
2017-03-23T11:15:02.706Z,1006.2
2017-03-23T11:30:03.517Z,1006.54
2017-03-23T11:45:03.291Z,1006.61
2017-03-23T12:00:03.009Z,1006.57
2017-03-23T12:15:02.691Z,1006.85
2017-03-23T12:30:02.581Z,1006.74
2017-03-23T12:45:03.477Z,1006.83
2017-03-23T13:00:03.422Z,1006.85
2017-03-23T13:15:03.167Z,1006.81
2017-03-23T13:30:03.576Z,1006.84
2017-03-23T13:45:03.314Z,1006.83
2017-03-23T14:00:03.041Z,1006.87
2017-03-23T14:15:02.731Z,1006.95
2017-03-23T14:30:02.930Z,1007.02
2017-03-23T14:45:03.583Z,1006.98
2017-03-23T15:00:03.284Z,1007.12
2017-03-23T15:15:03.611Z,1007.19
2017-03-23T15:30:02.973Z,1007.41
2017-03-23T15:45:02.665Z,1007.47
2017-03-23T16:00:03.384Z,1007.68
2017-03-23T16:15:02.788Z,1007.72
2017-03-23T16:30:03.137Z,1008.07
2017-03-23T16:45:08.822Z,1008.23
2017-03-23T17:00:08.579Z,1008.44
2017-03-23T17:15:03.037Z,1008.68
2017-03-23T17:30:08.286Z,1008.91
2017-03-23T17:45:02.977Z,1009.23
2017-03-23T18:00:02.889Z,1009.28
2017-03-23T18:15:08.765Z,1009.61
2017-03-23T18:30:02.713Z,1009.89
2017-03-23T18:45:03.420Z,1009.78
2017-03-23T19:00:03.169Z,1009.93
2017-03-23T19:15:03.129Z,1010.23
2017-03-23T19:30:03.489Z,1010.39
2017-03-23T19:45:03.232Z,1010.6
2017-03-23T20:00:03.743Z,1010.92
2017-03-23T20:15:03.524Z,1011.04
2017-03-23T20:30:03.847Z,1011.35
2017-03-23T20:45:03.689Z,1011.55
2017-03-23T21:00:03.418Z,1011.7
2017-03-23T21:15:03.699Z,1011.84
2017-03-23T21:30:02.897Z,1011.84
2017-03-23T21:45:02.663Z,1011.88
2017-03-23T22:00:03.388Z,1011.9
2017-03-23T22:15:02.773Z,1011.99
2017-03-23T22:30:03.385Z,1011.77
2017-03-23T22:45:03.180Z,1012.26
2017-03-23T23:00:02.957Z,1012.55
2017-03-23T23:15:02.720Z,1012.78
2017-03-23T23:30:02.587Z,1012.94
2017-03-23T23:45:03.259Z,1013.06
